Time;durP1;ratioP1;P1;durP2;ratioP2;P2;SDS_P1;SDS_P2;PMS_P1;PMS_P2;Temp;Humidity;BMP_temperature;BMP_pressure;BME280_temperature;BME280_humidity;BME280_pressure;Samples;Min_cycle;Max_cycle;Signal;HPM_P1;HPM_P2
2024/01/24 00:01:43;;;;;;;13.52;7.57;;;103.20;2227.20;;;;;;4783945;29;20038;-77
2024/01/24 00:04:08;;;;;;;12.13;7.53;;;103.10;2227.20;;;;;;4788708;29;20038;-79
2024/01/24 00:06:37;;;;;;;12.35;7.40;;;103.10;2227.20;;;;;;4785314;29;20597;-79
2024/01/24 00:09:03;;;;;;;13.40;9.18;;;103.10;2227.20;;;;;;4780258;29;20031;-76
2024/01/24 00:11:32;;;;;;;11.00;7.38;;;103.10;2227.20;;;;;;4768553;30;20047;-76
2024/01/24 00:13:58;;;;;;;11.13;8.65;;;103.10;2227.20;;;;;;4767964;30;20465;-76
2024/01/24 00:16:26;;;;;;;15.18;11.25;;;103.00;2227.20;;;;;;4787841;29;20062;-76
2024/01/24 00:18:52;;;;;;;19.42;10.25;;;103.00;2227.20;;;;;;4791343;29;20031;-77
2024/01/24 00:21:21;;;;;;;20.65;16.50;;;103.10;2227.20;;;;;;4788916;29;20031;-76
2024/01/24 00:23:47;;;;;;;12.00;8.38;;;103.00;2227.20;;;;;;4778227;29;20042;-77
2024/01/24 00:26:13;;;;;;;15.88;9.23;;;103.00;2227.20;;;;;;4793170;29;20039;-76
2024/01/24 00:28:39;;;;;;;13.02;7.63;;;102.90;2227.20;;;;;;4782535;29;20068;-75
2024/01/24 00:31:05;;;;;;;24.17;11.93;;;102.80;2227.20;;;;;;4780963;29;20028;-76
2024/01/24 00:33:32;;;;;;;16.65;8.82;;;102.90;2227.20;;;;;;4787772;29;20043;-76
2024/01/24 00:35:57;;;;;;;16.63;9.68;;;102.90;2227.20;;;;;;4787987;29;20047;-77
2024/01/24 00:38:24;;;;;;;15.90;9.95;;;102.80;2227.20;;;;;;4778373;29;20441;-76
2024/01/24 00:40:49;;;;;;;17.98;9.52;;;102.80;2227.20;;;;;;4793900;29;20055;-76
2024/01/24 00:43:15;;;;;;;14.48;8.18;;;102.80;2227.20;;;;;;4788893;29;20114;-75
2024/01/24 00:45:41;;;;;;;59.70;42.50;;;102.80;2227.20;;;;;;4783708;29;20115;-76
2024/01/24 00:48:07;;;;;;;16.08;9.75;;;102.80;2227.20;;;;;;4768425;30;20052;-77
2024/01/24 00:50:34;;;;;;;19.08;11.20;;;102.80;2227.20;;;;;;4785321;29;20087;-77
2024/01/24 00:53:04;;;;;;;11.93;8.85;;;102.80;2227.20;;;;;;4789699;29;20147;-76
2024/01/24 00:55:30;;;;;;;19.25;8.80;;;102.80;2227.20;;;;;;4791741;29;20039;-76
2024/01/24 00:57:58;;;;;;;14.88;8.10;;;102.80;2227.20;;;;;;4795402;29;20039;-76
2024/01/24 01:00:24;;;;;;;12.35;7.05;;;102.80;2227.20;;;;;;4786904;29;20545;-76
2024/01/24 01:02:50;;;;;;;13.57;6.95;;;102.80;2227.20;;;;;;4766554;30;20150;-76
2024/01/24 01:05:15;;;;;;;14.95;6.97;;;102.80;2227.20;;;;;;4785354;30;20454;-76
2024/01/24 01:07:41;;;;;;;15.77;8.52;;;102.80;2227.20;;;;;;4787563;29;20131;-76
2024/01/24 01:10:09;;;;;;;14.93;9.02;;;102.80;2227.20;;;;;;4769066;30;20484;-76
2024/01/24 01:12:35;;;;;;;20.10;9.00;;;102.80;2227.20;;;;;;4793347;29;20058;-76
2024/01/24 01:15:00;;;;;;;13.77;7.65;;;102.80;2227.20;;;;;;4785594;29;20490;-76
2024/01/24 01:17:26;;;;;;;11.10;8.82;;;102.80;2227.20;;;;;;4789273;29;20035;-75
2024/01/24 01:19:52;;;;;;;13.63;8.45;;;102.80;2227.20;;;;;;4788587;29;20034;-76
2024/01/24 01:22:20;;;;;;;24.30;14.85;;;102.80;2227.20;;;;;;4794359;29;20442;-76
2024/01/24 01:24:45;;;;;;;15.57;11.13;;;102.80;2227.20;;;;;;4772562;30;20055;-77
2024/01/24 01:27:11;;;;;;;14.13;8.63;;;102.80;2227.20;;;;;;4775381;30;20047;-76
2024/01/24 01:29:37;;;;;;;17.10;9.70;;;102.60;2227.20;;;;;;4773851;30;20039;-77
2024/01/24 01:32:03;;;;;;;19.55;8.75;;;102.60;2227.20;;;;;;4768031;30;20104;-75
2024/01/24 01:34:29;;;;;;;22.70;13.75;;;102.60;2227.20;;;;;;4782815;29;20505;-76
2024/01/24 01:36:55;;;;;;;13.25;9.18;;;102.50;2227.20;;;;;;4778644;30;20061;-77
2024/01/24 01:39:20;;;;;;;18.48;16.48;;;102.50;2227.20;;;;;;4782868;29;20502;-75
2024/01/24 01:41:48;;;;;;;16.92;10.43;;;102.50;2227.20;;;;;;4771892;30;20056;-76
2024/01/24 01:44:15;;;;;;;17.00;10.05;;;102.50;2227.20;;;;;;4762986;30;20130;-77
2024/01/24 01:46:41;;;;;;;25.17;12.73;;;102.40;2227.20;;;;;;4789914;29;20538;-76
2024/01/24 01:49:07;;;;;;;18.98;11.43;;;77.50;2227.20;;;;;;4791256;29;20039;-76
2024/01/24 01:51:34;;;;;;;15.50;9.13;;;77.50;2227.20;;;;;;4800605;29;20390;-77
2024/01/24 01:54:01;;;;;;;17.60;9.85;;;77.40;2227.20;;;;;;4790832;29;20051;-77
2024/01/24 01:56:27;;;;;;;25.80;15.35;;;77.40;2227.20;;;;;;4803329;29;20031;-77
2024/01/24 01:58:53;;;;;;;14.23;8.35;;;77.50;2227.20;;;;;;4785656;29;20115;-76
2024/01/24 02:01:19;;;;;;;19.80;8.02;;;77.50;2227.20;;;;;;4788069;29;20473;-77
2024/01/24 02:03:45;;;;;;;11.70;8.40;;;77.50;2227.20;;;;;;4779807;29;20100;-76
2024/01/24 02:06:12;;;;;;;15.80;9.25;;;77.50;2227.20;;;;;;4779678;29;20086;-77
2024/01/24 02:08:39;;;;;;;13.98;8.05;;;77.50;2227.20;;;;;;4795749;29;20084;-75
2024/01/24 02:11:05;;;;;;;12.70;6.72;;;77.60;2227.20;;;;;;4784371;29;20034;-76
2024/01/24 02:13:32;;;;;;;14.07;6.85;;;77.60;2227.20;;;;;;4785331;30;20047;-77
2024/01/24 02:16:04;;;;;;;14.48;8.45;;;77.50;2227.20;;;;;;4803453;29;20058;-76
2024/01/24 02:18:30;;;;;;;16.42;9.07;;;77.50;2227.20;;;;;;4803923;29;20624;-75
2024/01/24 02:20:56;;;;;;;14.65;8.68;;;77.40;2227.20;;;;;;4803464;29;20023;-76
2024/01/24 02:23:25;;;;;;;11.60;7.45;;;77.40;2227.20;;;;;;4794603;29;20035;-76
2024/01/24 02:25:54;;;;;;;17.58;9.57;;;77.30;2227.20;;;;;;4781370;30;20298;-76
2024/01/24 02:28:20;;;;;;;16.23;8.60;;;77.30;2227.20;;;;;;4794756;29;20027;-76
2024/01/24 02:30:46;;;;;;;16.15;8.88;;;77.40;2227.20;;;;;;4789536;29;20054;-76
2024/01/24 02:33:13;;;;;;;12.77;7.25;;;77.40;2227.20;;;;;;4774983;30;20082;-76
2024/01/24 02:35:38;;;;;;;16.00;8.23;;;77.40;2227.20;;;;;;4785074;29;20015;-77
2024/01/24 02:38:05;;;;;;;10.32;6.28;;;77.40;2227.20;;;;;;4795827;29;20382;-76
2024/01/24 02:40:31;;;;;;;11.52;6.82;;;77.50;2227.20;;;;;;4782044;30;20042;-77
2024/01/24 02:42:57;;;;;;;11.63;8.13;;;77.40;2227.20;;;;;;4779447;30;20042;-76
2024/01/24 02:45:23;;;;;;;17.58;9.15;;;77.50;2227.20;;;;;;4779455;30;20502;-76
2024/01/24 02:47:49;;;;;;;21.92;17.00;;;77.50;2227.20;;;;;;4785252;29;20139;-77
2024/01/24 02:50:16;;;;;;;24.17;15.27;;;77.30;2227.20;;;;;;4793751;29;20054;-78
2024/01/24 02:52:41;;;;;;;19.88;13.07;;;77.30;2227.20;;;;;;4796623;29;20039;-76
2024/01/24 02:55:08;;;;;;;26.05;13.32;;;77.30;2227.20;;;;;;4784207;30;20506;-76
2024/01/24 02:57:34;;;;;;;19.15;10.68;;;77.20;2227.20;;;;;;4799598;29;20065;-78
2024/01/24 03:00:00;;;;;;;16.35;8.77;;;77.20;2227.20;;;;;;4803097;29;20518;-77
2024/01/24 03:02:26;;;;;;;14.57;9.35;;;77.20;2227.20;;;;;;4783919;30;20187;-77
2024/01/24 03:04:52;;;;;;;15.02;8.40;;;77.20;2227.20;;;;;;4797150;29;20079;-77
2024/01/24 03:07:18;;;;;;;15.65;8.63;;;77.20;2227.20;;;;;;4796416;29;20466;-76
2024/01/24 03:09:43;;;;;;;21.38;12.77;;;77.20;2227.20;;;;;;4802686;29;20030;-77
2024/01/24 03:12:12;;;;;;;32.22;20.08;;;77.20;2227.20;;;;;;4803532;29;20102;-76
2024/01/24 03:14:37;;;;;;;27.58;19.15;;;77.20;2227.20;;;;;;4771912;29;20505;-76
2024/01/24 03:17:03;;;;;;;34.95;27.65;;;77.20;2227.20;;;;;;4783244;30;20103;-76
2024/01/24 03:19:29;;;;;;;24.95;20.45;;;77.20;2227.20;;;;;;4783206;30;20039;-76
2024/01/24 03:21:55;;;;;;;28.65;21.30;;;77.10;2227.20;;;;;;4802191;29;20030;-77
2024/01/24 03:24:21;;;;;;;61.05;37.85;;;77.10;2227.20;;;;;;4771722;30;20047;-77
2024/01/24 03:26:46;;;;;;;42.85;25.60;;;77.10;2227.20;;;;;;4800773;29;20037;-76
2024/01/24 03:29:12;;;;;;;36.08;20.35;;;77.00;2227.20;;;;;;4802869;29;20109;-76
2024/01/24 03:31:43;;;;;;;52.47;31.13;;;77.00;2227.20;;;;;;4802695;29;20471;-75
2024/01/24 03:34:10;;;;;;;40.92;20.75;;;77.00;2227.20;;;;;;4802541;29;20069;-76
2024/01/24 03:36:36;;;;;;;47.85;29.88;;;77.00;2227.20;;;;;;4783249;30;20039;-77
2024/01/24 03:39:03;;;;;;;48.97;26.27;;;76.90;2227.20;;;;;;4783614;30;20035;-75
2024/01/24 03:41:29;;;;;;;83.32;40.58;;;76.90;2227.20;;;;;;4783689;30;20479;-75
2024/01/24 03:43:55;;;;;;;40.83;21.60;;;76.90;2227.20;;;;;;4801452;29;20023;-77
2024/01/24 03:46:22;;;;;;;63.55;30.42;;;77.00;2227.20;;;;;;4783208;30;20134;-76
2024/01/24 03:48:48;;;;;;;93.10;42.85;;;77.00;2227.20;;;;;;4800261;29;20019;-76
2024/01/24 03:51:14;;;;;;;102.40;49.00;;;76.90;2227.20;;;;;;4802644;29;20038;-76
2024/01/24 03:53:40;;;;;;;236.80;92.47;;;76.90;2227.20;;;;;;4802057;29;20038;-77
2024/01/24 03:56:06;;;;;;;131.27;55.80;;;76.90;2227.20;;;;;;4802416;29;20030;-76
2024/01/24 03:58:32;;;;;;;111.78;42.53;;;76.90;2227.20;;;;;;4802574;29;20562;-78
2024/01/24 04:00:58;;;;;;;81.15;35.17;;;76.90;2227.20;;;;;;4802348;29;20105;-77
2024/01/24 04:03:24;;;;;;;18.77;9.55;;;76.90;2227.20;;;;;;4802397;29;20061;-77
2024/01/24 04:05:50;;;;;;;82.55;35.05;;;76.90;2227.20;;;;;;4784677;29;20043;-75
2024/01/24 04:08:16;;;;;;;53.33;26.27;;;76.80;2227.20;;;;;;4782502;30;20039;-75
2024/01/24 04:10:42;;;;;;;33.45;18.63;;;76.80;2227.20;;;;;;4783966;29;20395;-76
2024/01/24 04:13:08;;;;;;;46.03;21.73;;;52.10;2227.20;;;;;;4802150;29;20050;-75
2024/01/24 04:15:34;;;;;;;33.22;18.05;;;52.10;2227.20;;;;;;4801929;29;20076;-76
2024/01/24 04:17:59;;;;;;;34.47;16.40;;;52.10;2227.20;;;;;;4785562;29;20042;-78
2024/01/24 04:20:25;;;;;;;31.83;15.93;;;52.10;2227.20;;;;;;4802259;29;20031;-77
2024/01/24 04:22:51;;;;;;;55.70;20.88;;;52.00;2227.20;;;;;;4802232;29;20050;-76
2024/01/24 04:25:17;;;;;;;110.43;48.75;;;52.10;2227.20;;;;;;4802380;29;20467;-76
2024/01/24 04:27:43;;;;;;;92.90;45.17;;;52.10;2227.20;;;;;;4802242;29;20027;-77
2024/01/24 04:30:09;;;;;;;89.05;46.92;;;52.00;2227.20;;;;;;4782629;30;20100;-76
2024/01/24 04:32:35;;;;;;;77.63;40.80;;;52.00;2227.20;;;;;;4782538;30;20484;-76
2024/01/24 04:35:02;;;;;;;64.85;31.52;;;52.00;2227.20;;;;;;4791876;29;20042;-76
2024/01/24 04:37:28;;;;;;;54.92;28.42;;;52.00;2227.20;;;;;;4800767;29;20037;-76
2024/01/24 04:39:54;;;;;;;36.65;18.98;;;52.00;2227.20;;;;;;4791699;29;20039;-76
2024/01/24 04:42:19;;;;;;;31.40;18.20;;;51.90;2227.20;;;;;;4800553;29;20666;-76
2024/01/24 04:44:46;;;;;;;55.55;33.55;;;52.10;2227.20;;;;;;4791320;29;20443;-75
2024/01/24 04:47:14;;;;;;;84.20;44.95;;;52.10;2227.20;;;;;;4800746;29;20070;-76
2024/01/24 04:49:40;;;;;;;243.88;128.10;;;76.80;2227.20;;;;;;4790798;29;20161;-77
2024/01/24 04:52:06;;;;;;;185.98;90.20;;;76.90;2227.20;;;;;;4781636;30;20039;-76
2024/01/24 04:54:35;;;;;;;535.80;330.50;;;76.90;2227.20;;;;;;4787164;29;20034;-76
2024/01/24 04:57:02;;;;;;;89.82;48.03;;;76.90;2227.20;;;;;;4797945;29;20031;-75
2024/01/24 04:59:31;;;;;;;97.57;48.78;;;77.10;2227.20;;;;;;4799167;29;20050;-76
2024/01/24 05:01:57;;;;;;;67.80;34.83;;;76.90;2227.20;;;;;;4805293;29;20131;-76
2024/01/24 05:04:23;;;;;;;64.50;35.63;;;76.80;2227.20;;;;;;4804819;29;20045;-75
2024/01/24 05:06:49;;;;;;;48.30;25.55;;;52.10;2227.20;;;;;;4805315;29;20075;-76
2024/01/24 05:09:15;;;;;;;34.03;18.13;;;52.10;2227.20;;;;;;4793383;29;20039;-75
2024/01/24 05:11:41;;;;;;;20.35;13.43;;;52.00;2227.20;;;;;;4805081;29;20027;-76
2024/01/24 05:14:07;;;;;;;30.15;14.48;;;52.10;2227.20;;;;;;4804800;29;20043;-76
2024/01/24 05:16:33;;;;;;;26.58;19.73;;;52.00;2227.20;;;;;;4784910;30;20398;-77
2024/01/24 05:18:59;;;;;;;19.75;11.55;;;51.90;2227.20;;;;;;4797305;29;20035;-76
2024/01/24 05:21:25;;;;;;;18.55;10.77;;;51.80;2227.20;;;;;;4800565;29;20496;-76
2024/01/24 05:23:52;;;;;;;21.85;11.38;;;51.70;2227.20;;;;;;4804558;29;20039;-75
2024/01/24 05:26:19;;;;;;;14.52;9.57;;;51.50;2227.20;;;;;;4785300;30;20030;-76
2024/01/24 05:28:45;;;;;;;17.08;9.55;;;51.30;2227.20;;;;;;4785819;29;20399;-76
2024/01/24 05:31:10;;;;;;;16.40;8.68;;;51.30;2227.20;;;;;;4804635;29;20117;-76
2024/01/24 05:33:36;;;;;;;17.75;8.55;;;51.40;2227.20;;;;;;4804812;29;20538;-76
2024/01/24 05:36:02;;;;;;;19.85;10.10;;;51.30;2227.20;;;;;;4772440;30;20043;-76
2024/01/24 05:38:29;;;;;;;21.52;12.00;;;51.90;2227.20;;;;;;4768757;30;20411;-76
2024/01/24 05:40:55;;;;;;;33.00;13.85;;;51.40;2227.20;;;;;;4769611;30;20028;-75
2024/01/24 05:43:21;;;;;;;27.90;17.58;;;51.40;2227.20;;;;;;4799131;29;20039;-76
2024/01/24 05:45:50;;;;;;;27.23;15.98;;;51.40;2227.20;;;;;;4803872;29;20070;-77
2024/01/24 05:48:17;;;;;;;37.78;17.13;;;51.50;2227.20;;;;;;4802261;29;20039;-76
2024/01/24 05:50:44;;;;;;;59.20;28.42;;;51.70;2227.20;;;;;;4799715;29;20024;-77
2024/01/24 05:53:10;;;;;;;57.30;31.52;;;51.60;2227.20;;;;;;4793414;29;20129;-76
2024/01/24 05:55:38;;;;;;;34.03;20.55;;;51.50;2227.20;;;;;;4804432;29;20030;-76
2024/01/24 05:58:05;;;;;;;38.05;22.70;;;51.50;2227.20;;;;;;4803977;29;20027;-77
2024/01/24 06:00:31;;;;;;;61.15;33.60;;;51.60;2227.20;;;;;;4784502;30;20069;-76
2024/01/24 06:02:57;;;;;;;55.50;30.92;;;51.70;2227.20;;;;;;4802831;29;20031;-76
2024/01/24 06:05:22;;;;;;;67.97;36.88;;;51.70;2227.20;;;;;;4784551;30;20399;-76
2024/01/24 06:07:49;;;;;;;62.30;33.42;;;51.80;2227.20;;;;;;4801016;29;20037;-76
2024/01/24 06:10:16;;;;;;;50.63;29.88;;;51.80;2227.20;;;;;;4804046;29;20026;-76
2024/01/24 06:12:41;;;;;;;43.00;28.17;;;51.70;2227.20;;;;;;4772818;29;20056;-76
2024/01/24 06:15:08;;;;;;;52.70;28.38;;;51.80;2227.20;;;;;;4803103;29;20062;-76
2024/01/24 06:17:34;;;;;;;75.60;40.60;;;51.80;2227.20;;;;;;4802949;29;20107;-76
2024/01/24 06:20:00;;;;;;;191.18;100.07;;;51.70;2227.20;;;;;;4796266;29;20032;-77
2024/01/24 06:22:26;;;;;;;99.53;49.92;;;51.60;2227.20;;;;;;4797707;29;20075;-77
2024/01/24 06:24:52;;;;;;;42.53;23.75;;;51.70;2227.20;;;;;;4803012;29;20075;-76
2024/01/24 06:27:17;;;;;;;28.60;16.58;;;51.60;2227.20;;;;;;4802917;29;20466;-76
2024/01/24 06:29:43;;;;;;;34.05;19.92;;;51.60;2227.20;;;;;;4797734;29;20035;-77
2024/01/24 06:32:09;;;;;;;50.20;25.75;;;51.30;2227.20;;;;;;4786236;30;20108;-78
2024/01/24 06:34:35;;;;;;;19.55;10.30;;;51.40;2227.20;;;;;;4786276;29;20035;-76
2024/01/24 06:37:01;;;;;;;13.18;7.03;;;51.50;2227.20;;;;;;4798589;29;20084;-78
2024/01/24 06:39:27;;;;;;;11.65;6.53;;;51.40;2227.20;;;;;;4783703;29;20114;-75
2024/01/24 06:41:54;;;;;;;24.30;13.35;;;51.30;2227.20;;;;;;4788478;29;20429;-77
2024/01/24 06:44:19;;;;;;;36.78;21.45;;;51.50;2227.20;;;;;;4795344;29;20394;-76
2024/01/24 06:46:45;;;;;;;30.02;15.13;;;51.60;2227.20;;;;;;4792000;29;20036;-77
2024/01/24 06:49:11;;;;;;;65.32;28.33;;;51.70;2227.20;;;;;;4794519;29;20432;-76
2024/01/24 06:51:37;;;;;;;74.78;35.13;;;51.70;2227.20;;;;;;4804806;29;20027;-77
2024/01/24 06:54:04;;;;;;;186.18;106.95;;;51.60;2227.20;;;;;;4793400;29;20039;-75
2024/01/24 06:56:30;;;;;;;203.20;117.15;;;51.90;2227.20;;;;;;4784767;30;20088;-78
2024/01/24 06:58:56;;;;;;;67.95;36.33;;;52.00;2227.20;;;;;;4796744;29;20031;-76
2024/01/24 07:01:21;;;;;;;190.88;109.35;;;52.10;2227.20;;;;;;4799629;29;20027;-77
2024/01/24 07:03:48;;;;;;;155.30;89.35;;;52.10;2227.20;;;;;;4797370;29;20038;-76
2024/01/24 07:06:14;;;;;;;212.05;128.82;;;52.10;2227.20;;;;;;4798618;29;20384;-76
2024/01/24 07:08:40;;;;;;;190.48;119.00;;;52.10;2227.20;;;;;;4796041;29;20050;-76
2024/01/24 07:11:06;;;;;;;113.43;68.25;;;76.80;2227.20;;;;;;4773553;30;20614;-76
2024/01/24 07:13:32;;;;;;;103.65;58.28;;;76.80;2227.20;;;;;;4783627;30;20039;-76
2024/01/24 07:16:00;;;;;;;60.95;38.85;;;76.90;2227.20;;;;;;4759909;29;1242103;-76
2024/01/24 07:18:26;;;;;;;80.05;44.10;;;76.90;2227.20;;;;;;4802785;29;20134;-77
2024/01/24 07:20:52;;;;;;;60.67;35.85;;;77.00;2227.20;;;;;;4792615;29;20042;-75
2024/01/24 07:23:18;;;;;;;38.65;21.75;;;77.00;2227.20;;;;;;4803432;29;20035;-78
2024/01/24 07:25:44;;;;;;;61.08;34.45;;;77.10;2227.20;;;;;;4792390;29;20027;-76
2024/01/24 07:28:09;;;;;;;56.25;31.88;;;77.10;2227.20;;;;;;4791275;29;20031;-76
2024/01/24 07:30:37;;;;;;;36.60;24.95;;;77.20;2227.20;;;;;;4773051;30;20441;-76
2024/01/24 07:33:04;;;;;;;154.13;87.97;;;77.20;2227.20;;;;;;4795593;29;20127;-77
2024/01/24 07:35:31;;;;;;;107.68;63.47;;;77.20;2227.20;;;;;;4803697;29;20490;-78
2024/01/24 07:37:57;;;;;;;35.42;21.95;;;77.20;2227.20;;;;;;4783772;30;20046;-77
2024/01/24 07:40:24;;;;;;;38.95;30.48;;;77.20;2227.20;;;;;;4781894;29;20034;-77
2024/01/24 07:42:50;;;;;;;29.30;22.88;;;77.30;2227.20;;;;;;4786448;29;20034;-76
2024/01/24 07:45:16;;;;;;;20.02;17.70;;;77.40;2227.20;;;;;;4790076;29;20033;-76
2024/01/24 07:47:42;;;;;;;25.02;16.58;;;77.50;2227.20;;;;;;4801972;29;20127;-76
2024/01/24 07:50:08;;;;;;;29.05;21.42;;;77.50;2227.20;;;;;;4791210;29;20089;-76
2024/01/24 07:52:34;;;;;;;56.67;37.35;;;77.60;2227.20;;;;;;4778941;29;20031;-76
2024/01/24 07:55:00;;;;;;;47.28;31.25;;;77.70;2227.20;;;;;;4786759;29;20053;-77
2024/01/24 07:57:26;;;;;;;83.28;50.38;;;102.50;2227.20;;;;;;4803000;29;20022;-77
2024/01/24 07:59:51;;;;;;;107.53;62.33;;;102.60;2227.20;;;;;;4803070;29;20030;-76
2024/01/24 08:02:17;;;;;;;164.07;104.43;;;103.30;2227.20;;;;;;4802466;29;20420;-76
2024/01/24 08:04:43;;;;;;;179.43;118.53;;;205.10;2252.80;;;;;;4785049;29;20035;-75
2024/01/24 08:07:09;;;;;;;329.55;232.23;;;231.00;2252.80;;;;;;4804323;29;20039;-77
2024/01/24 08:09:34;;;;;;;348.38;265.35;;;281.60;2278.40;;;;;;4792049;29;20102;-76
2024/01/24 08:12:00;;;;;;;279.17;217.77;;;307.40;2227.20;;;;;;4804061;29;20125;-77
2024/01/24 08:14:32;;;;;;;350.13;259.67;;;308.10;2124.80;;;;;;4784064;30;20043;-78
2024/01/24 08:17:03;;;;;;;250.70;206.15;;;333.30;2073.60;;;;;;4802302;29;20051;-77
2024/01/24 08:19:30;;;;;;;155.52;115.30;;;358.70;1971.20;;;;;;4784279;29;20058;-80
2024/01/24 08:21:56;;;;;;;140.57;104.10;;;384.10;1868.80;;;;;;4782631;29;20038;-78
2024/01/24 08:24:21;;;;;;;91.60;64.80;;;409.70;1843.20;;;;;;4783736;29;20031;-78
2024/01/24 08:26:48;;;;;;;87.55;61.83;;;410.30;1766.40;;;;;;4794841;29;20031;-78
2024/01/24 08:29:15;;;;;;;66.40;49.88;;;435.90;1715.20;;;;;;4790080;29;20034;-79
2024/01/24 08:31:41;;;;;;;57.10;39.47;;;460.90;1689.60;;;;;;4787080;29;20541;-76
2024/01/24 08:34:07;;;;;;;44.65;33.30;;;461.70;1638.40;;;;;;4787090;29;20047;-77
2024/01/24 08:36:33;;;;;;;40.67;33.42;;;486.70;1612.80;;;;;;4787578;29;20030;-78
2024/01/24 08:38:59;;;;;;;40.67;35.42;;;487.20;1536.00;;;;;;4793239;29;20035;-78
2024/01/24 08:41:24;;;;;;;45.30;37.67;;;512.20;1536.00;;;;;;4787936;29;20142;-78
2024/01/24 08:43:52;;;;;;;39.60;34.80;;;512.60;1510.40;;;;;;4788169;29;20066;-77
2024/01/24 08:46:18;;;;;;;36.17;31.65;;;537.70;1510.40;;;;;;4780398;29;20371;-78
2024/01/24 08:48:44;;;;;;;51.60;46.13;;;538.00;1459.20;;;;;;4786873;29;20088;-78
2024/01/24 08:51:09;;;;;;;79.68;71.82;;;538.10;1433.60;;;;;;4773805;29;20039;-77
2024/01/24 08:53:37;;;;;;;56.63;45.78;;;537.80;1433.60;;;;;;4784475;29;20042;-78
2024/01/24 08:56:03;;;;;;;80.13;71.82;;;487.30;1459.20;;;;;;4787380;29;20087;-76
2024/01/24 08:58:30;;;;;;;38.90;29.23;;;512.10;1433.60;;;;;;4787658;29;20589;-77
2024/01/24 09:00:55;;;;;;;40.35;32.13;;;486.50;1459.20;;;;;;4782913;29;20117;-77
2024/01/24 09:03:21;;;;;;;44.85;35.90;;;460.80;1561.60;;;;;;4769677;30;20150;-77
2024/01/24 09:05:49;;;;;;;52.97;39.60;;;435.80;1561.60;;;;;;4782195;29;20131;-77
2024/01/24 09:08:14;;;;;;;109.05;85.97;;;409.80;1638.40;;;;;;4791513;29;20035;-77
2024/01/24 09:10:40;;;;;;;118.07;100.88;;;384.50;1638.40;;;;;;4783363;29;20027;-77
2024/01/24 09:13:06;;;;;;;96.32;82.20;;;384.60;1638.40;;;;;;4795301;29;20036;-79
2024/01/24 09:15:32;;;;;;;91.88;72.60;;;384.60;1664.00;;;;;;4785685;29;20648;-77
2024/01/24 09:17:57;;;;;;;99.43;75.40;;;384.00;1715.20;;;;;;4788392;29;20525;-78
2024/01/24 09:20:23;;;;;;;456.88;248.55;;;384.00;1715.20;;;;;;4764326;30;20495;-78
2024/01/24 09:22:50;;;;;;;354.23;187.85;;;359.30;1689.60;;;;;;4789529;29;20030;-76
2024/01/24 09:25:16;;;;;;;108.63;78.22;;;359.00;1740.80;;;;;;4770324;30;20082;-78
2024/01/24 09:27:42;;;;;;;99.55;78.43;;;358.60;1766.40;;;;;;4783463;29;20062;-76
2024/01/24 09:30:08;;;;;;;98.88;70.50;;;358.50;1817.60;;;;;;4790675;29;20467;-78
2024/01/24 09:32:34;;;;;;;119.35;87.35;;;333.70;1817.60;;;;;;4793035;29;20498;-78
2024/01/24 09:35:00;;;;;;;631.95;433.83;;;358.50;1817.60;;;;;;4781329;29;20042;-77
2024/01/24 09:37:27;;;;;;;309.33;207.70;;;333.70;1817.60;;;;;;4787949;29;20031;-76
2024/01/24 09:39:53;;;;;;;243.23;159.35;;;333.10;1894.40;;;;;;4786811;29;20118;-77
2024/01/24 09:42:26;;;;;;;168.93;127.53;;;307.90;1894.40;;;;;;4780747;29;20165;-76
2024/01/24 09:44:52;;;;;;;166.30;120.88;;;282.30;1945.60;;;;;;4788735;29;20509;-78
2024/01/24 09:47:31;;;;;;;153.63;115.05;;;281.70;1971.20;;;;;;4771338;30;20039;-77
2024/01/24 09:49:59;;;;;;;155.00;126.85;;;281.60;2022.40;;;;;;4793489;29;20483;-76
2024/01/24 09:52:26;;;;;;;125.32;98.13;;;281.80;2022.40;;;;;;4784700;29;20061;-78
2024/01/24 09:55:05;;;;;;;140.48;108.30;;;281.90;2022.40;;;;;;4786634;29;20028;-77
2024/01/24 09:57:33;;;;;;;139.77;105.45;;;282.20;1996.80;;;;;;4779007;30;20424;-76
2024/01/24 09:59:59;;;;;;;136.95;105.60;;;282.20;1996.80;;;;;;4770490;30;20540;-78
2024/01/24 10:02:29;;;;;;;149.68;108.22;;;282.20;1996.80;;;;;;4774048;30;20130;-78
2024/01/24 10:04:58;;;;;;;192.40;141.65;;;282.10;1996.80;;;;;;4792644;29;20066;-78
2024/01/24 10:07:26;;;;;;;187.90;135.00;;;282.00;2022.40;;;;;;4791119;29;20055;-80
2024/01/24 10:10:07;;;;;;;173.35;117.57;;;282.10;1996.80;;;;;;4781598;30;20040;-78
2024/01/24 10:12:33;;;;;;;134.70;92.55;;;281.90;2022.40;;;;;;4780131;30;20475;-78
2024/01/24 10:14:58;;;;;;;151.98;102.18;;;281.70;1996.80;;;;;;4762960;30;20065;-76
2024/01/24 10:17:24;;;;;;;115.25;85.60;;;256.90;1996.80;;;;;;4791735;29;20082;-79
2024/01/24 10:19:50;;;;;;;82.70;62.78;;;256.80;2022.40;;;;;;4781288;29;20024;-78
2024/01/24 10:22:16;;;;;;;126.50;91.30;;;256.70;2022.40;;;;;;4786449;29;20035;-78
2024/01/24 10:24:42;;;;;;;154.00;113.28;;;256.70;2048.00;;;;;;4797894;29;20106;-78
2024/01/24 10:27:08;;;;;;;185.35;135.48;;;256.40;2073.60;;;;;;4803693;29;20035;-77
2024/01/24 10:29:35;;;;;;;164.75;116.43;;;256.50;2073.60;;;;;;4771871;30;20069;-78
2024/01/24 10:32:01;;;;;;;195.57;135.77;;;256.70;2099.20;;;;;;4790878;29;20039;-77
2024/01/24 10:34:28;;;;;;;155.68;114.22;;;256.50;2099.20;;;;;;4788067;30;20578;-76
2024/01/24 10:36:54;;;;;;;141.40;95.75;;;256.50;2073.60;;;;;;4762630;30;20044;-78
2024/01/24 10:39:22;;;;;;;251.20;165.68;;;256.30;2073.60;;;;;;4789383;29;20028;-78
2024/01/24 10:41:54;;;;;;;244.77;162.85;;;256.20;2124.80;;;;;;4770583;29;20127;-79
2024/01/24 10:44:24;;;;;;;229.52;159.48;;;231.30;2150.40;;;;;;4789660;29;20503;-76
2024/01/24 10:46:51;;;;;;;226.18;159.30;;;231.30;2201.60;;;;;;4768077;29;20114;-77
2024/01/24 10:49:19;;;;;;;208.07;144.98;;;230.90;2227.20;;;;;;4801956;29;20031;-77
2024/01/24 10:51:46;;;;;;;213.57;153.20;;;231.20;2227.20;;;;;;4783048;29;20055;-77
2024/01/24 10:54:15;;;;;;;183.75;133.85;;;231.20;2201.60;;;;;;4805929;29;20039;-77
2024/01/24 10:56:48;;;;;;;178.68;124.03;;;256.00;2227.20;;;;;;4799167;29;20023;-77
2024/01/24 10:59:14;;;;;;;;;;;256.00;2176.00;;;;;;4784070;30;20499;-76
2024/01/24 11:01:40;;;;;;;188.77;142.30;;;231.30;2201.60;;;;;;4786102;29;19955;-78
2024/01/24 11:04:07;;;;;;;153.40;114.10;;;231.30;2227.20;;;;;;4768103;30;20040;-78
2024/01/24 11:06:36;;;;;;;163.85;123.85;;;231.00;2227.20;;;;;;4769352;30;20057;-78
2024/01/24 11:09:02;;;;;;;187.82;131.63;;;230.90;2252.80;;;;;;4806218;29;20541;-77
2024/01/24 11:11:33;;;;;;;195.40;139.05;;;231.20;2227.20;;;;;;4807231;29;20022;-77
2024/01/24 11:13:59;;;;;;;183.35;132.18;;;231.10;2252.80;;;;;;4806241;29;20053;-77
2024/01/24 11:16:37;;;;;;;138.93;96.13;;;231.20;2252.80;;;;;;4787403;29;20060;-77
2024/01/24 11:19:22;;;;;;;125.40;90.32;;;230.60;2252.80;;;;;;4806540;29;20026;-76
2024/01/24 11:21:55;;;;;;;146.77;106.60;;;230.80;2252.80;;;;;;4768365;29;20042;-77
2024/01/24 11:24:53;;;;;;;156.48;113.38;;;231.30;2227.20;;;;;;4786236;30;20055;-78
2024/01/24 11:27:35;;;;;;;175.02;110.80;;;256.20;2227.20;;;;;;4736576;30;20043;-78
2024/01/24 11:30:36;;;;;;;139.10;89.70;;;256.20;2201.60;;;;;;4724217;30;20154;-77
2024/01/24 11:33:02;;;;;;;133.85;90.38;;;231.30;2176.00;;;;;;4718845;30;20139;-77
2024/01/24 11:35:37;;;;;;;137.23;95.18;;;231.10;2201.60;;;;;;4719575;30;20109;-77
2024/01/24 11:38:26;;;;;;;176.25;113.70;;;231.00;2201.60;;;;;;4721487;30;20040;-76
2024/01/24 11:41:02;;;;;;;136.23;89.75;;;231.20;2201.60;;;;;;4748101;30;20032;-75
2024/01/24 11:43:31;;;;;;;103.68;74.25;;;256.10;2176.00;;;;;;4721547;30;20063;-77
2024/01/24 11:46:03;;;;;;;120.97;79.45;;;256.10;2176.00;;;;;;4723371;30;20535;-77
2024/01/24 11:48:34;;;;;;;99.78;71.50;;;256.30;2201.60;;;;;;4737312;30;20036;-78
2024/01/24 11:51:11;;;;;;;80.05;57.97;;;256.30;2201.60;;;;;;4740816;30;20037;-79
2024/01/24 11:53:37;;;;;;;94.45;64.10;;;256.20;2176.00;;;;;;4718298;30;20041;-78
2024/01/24 11:56:10;;;;;;;86.40;64.20;;;256.40;2150.40;;;;;;4737313;30;20045;-77
2024/01/24 11:58:36;;;;;;;82.05;54.33;;;256.50;2150.40;;;;;;4720005;30;20033;-78
2024/01/24 12:01:07;;;;;;;97.68;74.20;;;256.50;2099.20;;;;;;4718446;30;20033;-78